Zweefvliegveld Noordkop

NL-0052 · North Holland, 荷兰

罗盘
风向 的 风向 180° Zweefvliegveld Noordkop 3/21
风: 10 kt, 3 beaufort

8 kt

5 kt
改变
0 ft 1.000 2.000 3.000 4.000 5.000
Cloud Cloud
FEW 2.200
Cloud Cloud Cloud Cloud
SCT 2.500
Cloud Cloud Cloud Cloud Cloud Cloud
BKN 4.400
METAR EHKD 232311Z AUTO 18010KT 9999 FEW022 SCT025 BKN044 05/03 Q0991 BLU

METAR Zweefvliegveld Noordkop - NL-0052

Zweefvliegveld Noordkop是,荷兰中的格利德菲尔德。 该机场位于纬度52,89509和经度5,00498。 该机场有一条跑道: 3/21. 这个机场没有ICAO代码,我们使用NL-0052作为参考。 机场在Amsterdam FIR中。

该航空气象观测是针对De Kooy Airfield在2024年2月24日 00:11, 当地时间进行的。

机场观察

风向为180°,速度为10 kt。

可见度为10 km 或者更多。

有几云在2.200 ft的高度, 疏云,零星散落的云朵在2.500 ft的高度 和 碎云在4.400 ft的高度。 破损或更高的上限为4.400 ft。

温度为5 °C,阵风为-1 °C。 露点为3 °C,相对湿度为87%。 海平面上的气压为991 hPa (QNH)。

白天

今天,太阳从07:40升起,在18:05降落。 这适用于Zweefvliegveld Noordkop,世界夏令时可能有所不同。 当地时间与世界标准时间之间的时差为+1 小时。 当前,没有夏令时有效。

公司介绍

在这个机场,你可以找到滑翔机飞行俱乐部。 这个机场上的公司有Zweefvliegcentrum Nordkop 和 Zweefvliegcentrum Noordkop。

体会

到Vliegles.nl去找飞行课程,跳伞和其他飞行体验。 浏览页面,了解Zweefvliegveld Noordkop附近所有可用的活动。 你也可以使用搜索功能来寻找你所在地附近的特定飞行课程、跳伞或其他飞行体验。

跑道

Id 标题 侧风 逆风 侧风 %
3/21 032°-212° 5 kt 8 kt 53 %

逆风成分最大的方向会被突出显示,并用于横风计算。 这并不一定意味着这个方向在使用。

乌云

2.200 ft FEW 几云
2.500 ft SCT 疏云,零星散落的云朵
4.400 ft BKN 碎云

温度 & 天气

温度 5 °C
露点 3 °C
相对湿度 87%
风寒 -1 °C
Kp-index 0 (0-9)

白天

日出
07:41 (7:15)
中午
12:54
日落
18:06

小工具

你想在你的网站上有一个关于Zweefvliegveld Noordkop的当前航空天气(METAR)的小部件吗?

显示HTML代码
?>